sensor_id;sensor_type;location;lat;lon;timestamp;temperature;humidity
56725;DHT22;42608;52.776;6.968;2023-06-04T00:01:59;11.40;99.90
56725;DHT22;42608;52.776;6.968;2023-06-04T00:04:25;11.40;99.90
56725;DHT22;42608;52.776;6.968;2023-06-04T00:06:51;11.30;99.90
56725;DHT22;42608;52.776;6.968;2023-06-04T00:09:17;11.30;99.90
56725;DHT22;42608;52.776;6.968;2023-06-04T00:11:42;11.20;99.90
56725;DHT22;42608;52.776;6.968;2023-06-04T00:14:08;11.10;99.90
56725;DHT22;42608;52.776;6.968;2023-06-04T00:16:34;11.10;99.90
56725;DHT22;42608;52.776;6.968;2023-06-04T00:19:01;11.00;99.90
56725;DHT22;42608;52.776;6.968;2023-06-04T00:21:26;11.00;99.90
56725;DHT22;42608;52.776;6.968;2023-06-04T00:23:52;11.00;99.90
56725;DHT22;42608;52.776;6.968;2023-06-04T00:26:17;11.00;99.90
56725;DHT22;42608;52.776;6.968;2023-06-04T00:28:43;10.90;99.90
56725;DHT22;42608;52.776;6.968;2023-06-04T00:31:09;10.90;99.90
56725;DHT22;42608;52.776;6.968;2023-06-04T00:33:35;10.90;99.90
56725;DHT22;42608;52.776;6.968;2023-06-04T00:36:01;10.90;99.90
56725;DHT22;42608;52.776;6.968;2023-06-04T00:38:27;10.80;99.90
56725;DHT22;42608;52.776;6.968;2023-06-04T00:40:52;10.80;99.90
56725;DHT22;42608;52.776;6.968;2023-06-04T00:43:18;10.70;99.90
56725;DHT22;42608;52.776;6.968;2023-06-04T00:45:44;10.70;99.90
56725;DHT22;42608;52.776;6.968;2023-06-04T00:48:10;10.70;99.90
56725;DHT22;42608;52.776;6.968;2023-06-04T00:50:35;10.70;99.90
56725;DHT22;42608;52.776;6.968;2023-06-04T00:53:04;10.70;99.90
56725;DHT22;42608;52.776;6.968;2023-06-04T00:55:30;10.70;99.90
56725;DHT22;42608;52.776;6.968;2023-06-04T00:57:57;10.70;99.90
56725;DHT22;42608;52.776;6.968;2023-06-04T01:00:22;10.70;99.90
56725;DHT22;42608;52.776;6.968;2023-06-04T01:02:48;10.60;99.90
56725;DHT22;42608;52.776;6.968;2023-06-04T01:08:00;10.50;99.90
56725;DHT22;42608;52.776;6.968;2023-06-04T01:10:26;10.50;99.90
56725;DHT22;42608;52.776;6.968;2023-06-04T01:12:51;10.50;99.90
56725;DHT22;42608;52.776;6.968;2023-06-04T01:15:17;10.40;99.90
56725;DHT22;42608;52.776;6.968;2023-06-04T01:17:47;10.40;99.90
56725;DHT22;42608;52.776;6.968;2023-06-04T01:20:59;10.40;99.90
56725;DHT22;42608;52.776;6.968;2023-06-04T01:25:36;10.20;99.90
56725;DHT22;42608;52.776;6.968;2023-06-04T01:28:06;10.30;99.90
56725;DHT22;42608;52.776;6.968;2023-06-04T01:30:36;10.30;99.90
56725;DHT22;42608;52.776;6.968;2023-06-04T01:33:11;10.30;99.90
56725;DHT22;42608;52.776;6.968;2023-06-04T01:35:38;10.20;99.90
56725;DHT22;42608;52.776;6.968;2023-06-04T01:38:05;10.20;99.90
56725;DHT22;42608;52.776;6.968;2023-06-04T01:40:30;10.20;99.90
56725;DHT22;42608;52.776;6.968;2023-06-04T01:42:57;10.20;99.90
56725;DHT22;42608;52.776;6.968;2023-06-04T01:45:24;10.20;99.90
56725;DHT22;42608;52.776;6.968;2023-06-04T01:47:51;10.20;99.90
56725;DHT22;42608;52.776;6.968;2023-06-04T01:50:18;10.20;99.90
56725;DHT22;42608;52.776;6.968;2023-06-04T01:52:44;10.10;99.90
56725;DHT22;42608;52.776;6.968;2023-06-04T01:55:12;10.10;99.90
56725;DHT22;42608;52.776;6.968;2023-06-04T01:57:38;10.10;99.90
56725;DHT22;42608;52.776;6.968;2023-06-04T02:00:06;10.10;99.90
56725;DHT22;42608;52.776;6.968;2023-06-04T02:02:40;10.00;99.90
56725;DHT22;42608;52.776;6.968;2023-06-04T02:05:07;10.00;99.90
56725;DHT22;42608;52.776;6.968;2023-06-04T02:07:37;10.00;99.90
56725;DHT22;42608;52.776;6.968;2023-06-04T02:10:11;10.00;99.90
56725;DHT22;42608;52.776;6.968;2023-06-04T02:12:39;10.00;99.90
56725;DHT22;42608;52.776;6.968;2023-06-04T02:15:05;9.90;99.90
56725;DHT22;42608;52.776;6.968;2023-06-04T02:17:32;9.90;99.90
56725;DHT22;42608;52.776;6.968;2023-06-04T02:19:58;9.90;99.90
56725;DHT22;42608;52.776;6.968;2023-06-04T02:22:25;9.90;99.90
56725;DHT22;42608;52.776;6.968;2023-06-04T02:24:51;9.90;99.90
56725;DHT22;42608;52.776;6.968;2023-06-04T02:27:17;9.90;99.90
56725;DHT22;42608;52.776;6.968;2023-06-04T02:29:43;9.90;99.90
56725;DHT22;42608;52.776;6.968;2023-06-04T02:32:09;9.80;99.90
56725;DHT22;42608;52.776;6.968;2023-06-04T02:34:35;9.80;99.90
56725;DHT22;42608;52.776;6.968;2023-06-04T02:37:01;9.80;99.90
56725;DHT22;42608;52.776;6.968;2023-06-04T02:39:27;9.80;99.90
56725;DHT22;42608;52.776;6.968;2023-06-04T02:41:53;9.80;99.90
56725;DHT22;42608;52.776;6.968;2023-06-04T02:44:19;9.80;99.90
56725;DHT22;42608;52.776;6.968;2023-06-04T02:46:45;9.70;99.90
56725;DHT22;42608;52.776;6.968;2023-06-04T02:49:11;9.80;99.90
56725;DHT22;42608;52.776;6.968;2023-06-04T02:51:45;9.80;99.90
56725;DHT22;42608;52.776;6.968;2023-06-04T02:54:11;9.80;99.90
56725;DHT22;42608;52.776;6.968;2023-06-04T02:56:37;9.70;99.90
56725;DHT22;42608;52.776;6.968;2023-06-04T02:59:03;9.70;99.90
56725;DHT22;42608;52.776;6.968;2023-06-04T03:01:29;9.70;99.90
56725;DHT22;42608;52.776;6.968;2023-06-04T03:03:56;9.70;99.90
56725;DHT22;42608;52.776;6.968;2023-06-04T03:06:23;9.70;99.90
56725;DHT22;42608;52.776;6.968;2023-06-04T03:08:49;9.70;99.90
56725;DHT22;42608;52.776;6.968;2023-06-04T03:11:18;9.70;99.90
56725;DHT22;42608;52.776;6.968;2023-06-04T03:13:47;9.60;99.90
56725;DHT22;42608;52.776;6.968;2023-06-04T03:16:14;9.60;99.90
56725;DHT22;42608;52.776;6.968;2023-06-04T03:18:41;9.70;99.90
56725;DHT22;42608;52.776;6.968;2023-06-04T03:21:07;9.70;99.90
56725;DHT22;42608;52.776;6.968;2023-06-04T03:23:34;9.70;99.90
56725;DHT22;42608;52.776;6.968;2023-06-04T03:26:04;9.60;99.90
56725;DHT22;42608;52.776;6.968;2023-06-04T03:28:32;9.70;99.90
56725;DHT22;42608;52.776;6.968;2023-06-04T03:30:58;9.70;99.90
56725;DHT22;42608;52.776;6.968;2023-06-04T03:33:24;9.60;99.90
56725;DHT22;42608;52.776;6.968;2023-06-04T03:35:53;9.60;99.90
56725;DHT22;42608;52.776;6.968;2023-06-04T03:38:19;9.60;99.90
56725;DHT22;42608;52.776;6.968;2023-06-04T03:40:45;9.60;99.90
56725;DHT22;42608;52.776;6.968;2023-06-04T03:43:11;9.70;99.90
56725;DHT22;42608;52.776;6.968;2023-06-04T03:45:37;9.70;99.90
56725;DHT22;42608;52.776;6.968;2023-06-04T03:48:03;9.70;99.90
56725;DHT22;42608;52.776;6.968;2023-06-04T03:50:29;9.70;99.90
56725;DHT22;42608;52.776;6.968;2023-06-04T03:52:55;9.80;99.90
56725;DHT22;42608;52.776;6.968;2023-06-04T03:55:21;9.80;99.90
56725;DHT22;42608;52.776;6.968;2023-06-04T03:57:47;9.80;99.90
56725;DHT22;42608;52.776;6.968;2023-06-04T04:00:13;9.80;99.90
56725;DHT22;42608;52.776;6.968;2023-06-04T04:02:40;9.80;99.90
56725;DHT22;42608;52.776;6.968;2023-06-04T04:05:06;9.80;99.90
56725;DHT22;42608;52.776;6.968;2023-06-04T04:07:32;9.80;99.90
56725;DHT22;42608;52.776;6.968;2023-06-04T04:09:57;9.80;99.90
56725;DHT22;42608;52.776;6.968;2023-06-04T04:12:23;9.80;99.90
56725;DHT22;42608;52.776;6.968;2023-06-04T04:14:49;9.80;99.90
56725;DHT22;42608;52.776;6.968;2023-06-04T04:17:15;9.80;99.90
56725;DHT22;42608;52.776;6.968;2023-06-04T04:19:41;9.80;99.90
56725;DHT22;42608;52.776;6.968;2023-06-04T04:22:06;9.80;99.90
56725;DHT22;42608;52.776;6.968;2023-06-04T04:24:34;9.80;99.90
56725;DHT22;42608;52.776;6.968;2023-06-04T04:27:02;9.80;99.90
56725;DHT22;42608;52.776;6.968;2023-06-04T04:29:30;9.80;99.90
56725;DHT22;42608;52.776;6.968;2023-06-04T04:31:59;9.90;99.90
56725;DHT22;42608;52.776;6.968;2023-06-04T04:34:38;9.90;99.90
56725;DHT22;42608;52.776;6.968;2023-06-04T04:37:08;9.90;99.90
56725;DHT22;42608;52.776;6.968;2023-06-04T04:39:35;9.90;99.90
56725;DHT22;42608;52.776;6.968;2023-06-04T04:42:02;9.90;99.90
56725;DHT22;42608;52.776;6.968;2023-06-04T04:44:28;10.00;99.90
56725;DHT22;42608;52.776;6.968;2023-06-04T04:46:54;10.00;99.90
56725;DHT22;42608;52.776;6.968;2023-06-04T04:49:19;10.00;99.90
56725;DHT22;42608;52.776;6.968;2023-06-04T04:51:46;10.10;99.90
56725;DHT22;42608;52.776;6.968;2023-06-04T04:54:12;10.10;99.90
56725;DHT22;42608;52.776;6.968;2023-06-04T04:56:37;10.20;99.90
56725;DHT22;42608;52.776;6.968;2023-06-04T04:59:03;10.20;99.90
56725;DHT22;42608;52.776;6.968;2023-06-04T05:01:29;10.30;99.90
56725;DHT22;42608;52.776;6.968;2023-06-04T05:03:55;10.40;99.90
56725;DHT22;42608;52.776;6.968;2023-06-04T05:06:21;10.50;99.90
56725;DHT22;42608;52.776;6.968;2023-06-04T05:08:47;10.50;99.90
56725;DHT22;42608;52.776;6.968;2023-06-04T05:11:13;10.60;99.90
56725;DHT22;42608;52.776;6.968;2023-06-04T05:13:39;10.70;99.90
56725;DHT22;42608;52.776;6.968;2023-06-04T05:16:07;10.80;99.90
56725;DHT22;42608;52.776;6.968;2023-06-04T05:18:33;10.80;99.90
56725;DHT22;42608;52.776;6.968;2023-06-04T05:21:00;10.90;99.90
56725;DHT22;42608;52.776;6.968;2023-06-04T05:23:28;11.00;99.90
56725;DHT22;42608;52.776;6.968;2023-06-04T05:25:54;11.10;99.90
56725;DHT22;42608;52.776;6.968;2023-06-04T05:28:22;11.20;99.90
56725;DHT22;42608;52.776;6.968;2023-06-04T05:30:51;11.20;99.90
56725;DHT22;42608;52.776;6.968;2023-06-04T05:33:17;11.30;99.90
56725;DHT22;42608;52.776;6.968;2023-06-04T05:35:49;11.40;99.90
56725;DHT22;42608;52.776;6.968;2023-06-04T05:38:15;11.50;99.90
56725;DHT22;42608;52.776;6.968;2023-06-04T05:40:43;11.60;99.90
56725;DHT22;42608;52.776;6.968;2023-06-04T05:43:08;11.70;99.90
56725;DHT22;42608;52.776;6.968;2023-06-04T05:45:34;11.80;99.90
56725;DHT22;42608;52.776;6.968;2023-06-04T05:48:00;11.90;99.90
56725;DHT22;42608;52.776;6.968;2023-06-04T05:50:25;12.00;99.90
56725;DHT22;42608;52.776;6.968;2023-06-04T05:52:51;12.00;99.90
56725;DHT22;42608;52.776;6.968;2023-06-04T05:55:17;12.20;99.90
56725;DHT22;42608;52.776;6.968;2023-06-04T05:57:42;12.20;99.90
56725;DHT22;42608;52.776;6.968;2023-06-04T06:00:08;12.30;99.90
56725;DHT22;42608;52.776;6.968;2023-06-04T06:02:36;12.40;99.90
56725;DHT22;42608;52.776;6.968;2023-06-04T06:05:03;12.50;99.90
56725;DHT22;42608;52.776;6.968;2023-06-04T06:07:29;12.60;99.90
56725;DHT22;42608;52.776;6.968;2023-06-04T06:09:55;12.70;99.90
56725;DHT22;42608;52.776;6.968;2023-06-04T06:12:21;12.70;99.90
56725;DHT22;42608;52.776;6.968;2023-06-04T06:14:46;12.80;99.90
56725;DHT22;42608;52.776;6.968;2023-06-04T06:17:17;12.90;99.90
56725;DHT22;42608;52.776;6.968;2023-06-04T06:19:43;13.00;99.90
56725;DHT22;42608;52.776;6.968;2023-06-04T06:22:09;13.00;99.90
56725;DHT22;42608;52.776;6.968;2023-06-04T06:24:34;13.10;99.90
56725;DHT22;42608;52.776;6.968;2023-06-04T06:27:00;13.10;99.90
56725;DHT22;42608;52.776;6.968;2023-06-04T06:29:26;13.30;99.90
56725;DHT22;42608;52.776;6.968;2023-06-04T06:31:52;13.30;99.90
56725;DHT22;42608;52.776;6.968;2023-06-04T06:34:17;13.40;99.90
56725;DHT22;42608;52.776;6.968;2023-06-04T06:36:43;13.50;99.90
56725;DHT22;42608;52.776;6.968;2023-06-04T06:39:12;13.60;99.90
56725;DHT22;42608;52.776;6.968;2023-06-04T06:41:38;13.60;99.90
56725;DHT22;42608;52.776;6.968;2023-06-04T06:44:04;13.70;99.90
56725;DHT22;42608;52.776;6.968;2023-06-04T06:46:30;13.70;99.90
56725;DHT22;42608;52.776;6.968;2023-06-04T06:48:58;13.90;99.90
56725;DHT22;42608;52.776;6.968;2023-06-04T06:51:24;14.00;99.90
56725;DHT22;42608;52.776;6.968;2023-06-04T06:53:50;14.10;99.90
56725;DHT22;42608;52.776;6.968;2023-06-04T06:56:18;14.10;99.90
56725;DHT22;42608;52.776;6.968;2023-06-04T06:58:44;14.20;99.90
56725;DHT22;42608;52.776;6.968;2023-06-04T07:01:13;14.30;99.90
56725;DHT22;42608;52.776;6.968;2023-06-04T07:03:39;14.40;99.90
56725;DHT22;42608;52.776;6.968;2023-06-04T07:06:07;14.40;99.90
56725;DHT22;42608;52.776;6.968;2023-06-04T07:08:33;14.50;99.90
56725;DHT22;42608;52.776;6.968;2023-06-04T07:11:03;14.60;99.90
56725;DHT22;42608;52.776;6.968;2023-06-04T07:13:29;14.70;99.90
56725;DHT22;42608;52.776;6.968;2023-06-04T07:15:57;14.80;99.90
56725;DHT22;42608;52.776;6.968;2023-06-04T07:18:23;14.90;99.90
56725;DHT22;42608;52.776;6.968;2023-06-04T07:20:49;15.00;99.90
56725;DHT22;42608;52.776;6.968;2023-06-04T07:23:15;15.00;99.90
56725;DHT22;42608;52.776;6.968;2023-06-04T07:25:40;15.10;99.90
56725;DHT22;42608;52.776;6.968;2023-06-04T07:28:06;15.20;99.90
56725;DHT22;42608;52.776;6.968;2023-06-04T07:30:32;15.20;99.90
56725;DHT22;42608;52.776;6.968;2023-06-04T07:32:58;15.30;99.90
56725;DHT22;42608;52.776;6.968;2023-06-04T07:35:23;15.30;99.90
56725;DHT22;42608;52.776;6.968;2023-06-04T07:37:50;15.40;99.90
56725;DHT22;42608;52.776;6.968;2023-06-04T07:40:16;15.50;99.90
56725;DHT22;42608;52.776;6.968;2023-06-04T07:42:42;15.60;99.90
56725;DHT22;42608;52.776;6.968;2023-06-04T07:45:09;15.60;99.90
56725;DHT22;42608;52.776;6.968;2023-06-04T07:47:38;15.60;99.90
56725;DHT22;42608;52.776;6.968;2023-06-04T07:50:05;15.60;99.90
56725;DHT22;42608;52.776;6.968;2023-06-04T07:52:31;15.70;99.90
56725;DHT22;42608;52.776;6.968;2023-06-04T07:54:57;15.70;99.90
56725;DHT22;42608;52.776;6.968;2023-06-04T07:57:23;15.80;99.90
56725;DHT22;42608;52.776;6.968;2023-06-04T07:59:49;15.80;99.90
56725;DHT22;42608;52.776;6.968;2023-06-04T08:02:15;15.90;99.90
56725;DHT22;42608;52.776;6.968;2023-06-04T08:04:41;15.90;99.90
56725;DHT22;42608;52.776;6.968;2023-06-04T08:07:07;16.00;99.90
56725;DHT22;42608;52.776;6.968;2023-06-04T08:09:32;16.10;99.90
56725;DHT22;42608;52.776;6.968;2023-06-04T08:11:59;16.10;99.90
56725;DHT22;42608;52.776;6.968;2023-06-04T08:14:26;16.20;99.90
56725;DHT22;42608;52.776;6.968;2023-06-04T08:16:55;16.20;99.90
56725;DHT22;42608;52.776;6.968;2023-06-04T08:19:21;16.30;99.90
56725;DHT22;42608;52.776;6.968;2023-06-04T08:21:47;16.40;99.90
56725;DHT22;42608;52.776;6.968;2023-06-04T08:24:13;16.40;99.90
56725;DHT22;42608;52.776;6.968;2023-06-04T08:26:38;16.50;99.90
56725;DHT22;42608;52.776;6.968;2023-06-04T08:29:05;16.60;99.90
56725;DHT22;42608;52.776;6.968;2023-06-04T08:31:31;16.70;99.90
56725;DHT22;42608;52.776;6.968;2023-06-04T08:33:58;16.80;99.90
56725;DHT22;42608;52.776;6.968;2023-06-04T08:36:24;16.80;99.90
56725;DHT22;42608;52.776;6.968;2023-06-04T08:38:49;16.80;99.90
56725;DHT22;42608;52.776;6.968;2023-06-04T08:43:50;16.90;99.90
56725;DHT22;42608;52.776;6.968;2023-06-04T08:46:17;16.90;99.90
56725;DHT22;42608;52.776;6.968;2023-06-04T08:48:44;17.00;99.90
56725;DHT22;42608;52.776;6.968;2023-06-04T08:51:10;17.00;99.90
56725;DHT22;42608;52.776;6.968;2023-06-04T08:53:37;17.10;99.90
56725;DHT22;42608;52.776;6.968;2023-06-04T08:56:03;17.20;99.90
56725;DHT22;42608;52.776;6.968;2023-06-04T08:58:32;17.20;99.90
56725;DHT22;42608;52.776;6.968;2023-06-04T09:01:01;17.30;99.90
56725;DHT22;42608;52.776;6.968;2023-06-04T09:03:28;17.40;99.90
56725;DHT22;42608;52.776;6.968;2023-06-04T09:05:58;17.50;99.90
56725;DHT22;42608;52.776;6.968;2023-06-04T09:08:26;17.50;99.90
56725;DHT22;42608;52.776;6.968;2023-06-04T09:10:54;17.60;99.90
56725;DHT22;42608;52.776;6.968;2023-06-04T09:13:22;17.60;99.90
56725;DHT22;42608;52.776;6.968;2023-06-04T09:16:03;17.70;99.90
56725;DHT22;42608;52.776;6.968;2023-06-04T09:18:29;17.70;99.90
56725;DHT22;42608;52.776;6.968;2023-06-04T09:21:06;17.70;99.90
56725;DHT22;42608;52.776;6.968;2023-06-04T09:23:46;17.80;99.90
56725;DHT22;42608;52.776;6.968;2023-06-04T09:26:13;17.80;99.90
56725;DHT22;42608;52.776;6.968;2023-06-04T09:28:45;17.80;99.90
56725;DHT22;42608;52.776;6.968;2023-06-04T09:31:16;17.80;99.90
56725;DHT22;42608;52.776;6.968;2023-06-04T09:33:46;18.00;99.90
56725;DHT22;42608;52.776;6.968;2023-06-04T09:36:13;18.10;99.90
56725;DHT22;42608;52.776;6.968;2023-06-04T09:38:39;18.10;99.90
56725;DHT22;42608;52.776;6.968;2023-06-04T09:41:11;18.10;99.90
56725;DHT22;42608;52.776;6.968;2023-06-04T09:43:36;18.10;99.90
56725;DHT22;42608;52.776;6.968;2023-06-04T09:46:10;18.20;99.90
56725;DHT22;42608;52.776;6.968;2023-06-04T09:48:36;18.20;99.90
56725;DHT22;42608;52.776;6.968;2023-06-04T09:51:11;18.30;99.90
56725;DHT22;42608;52.776;6.968;2023-06-04T09:53:38;18.30;98.80
56725;DHT22;42608;52.776;6.968;2023-06-04T09:56:05;18.30;98.90
56725;DHT22;42608;52.776;6.968;2023-06-04T09:58:32;18.40;99.40
56725;DHT22;42608;52.776;6.968;2023-06-04T10:01:05;18.40;99.90
56725;DHT22;42608;52.776;6.968;2023-06-04T10:03:36;18.40;98.90
56725;DHT22;42608;52.776;6.968;2023-06-04T10:06:05;18.50;98.40
56725;DHT22;42608;52.776;6.968;2023-06-04T10:08:32;18.50;98.10
56725;DHT22;42608;52.776;6.968;2023-06-04T10:11:00;18.50;98.40
56725;DHT22;42608;52.776;6.968;2023-06-04T10:13:35;18.60;98.40
56725;DHT22;42608;52.776;6.968;2023-06-04T10:16:03;18.60;98.10
56725;DHT22;42608;52.776;6.968;2023-06-04T10:18:31;18.60;98.30
56725;DHT22;42608;52.776;6.968;2023-06-04T10:21:00;18.70;97.60
56725;DHT22;42608;52.776;6.968;2023-06-04T10:23:27;18.80;96.80
56725;DHT22;42608;52.776;6.968;2023-06-04T10:25:54;18.80;97.40
56725;DHT22;42608;52.776;6.968;2023-06-04T10:28:22;18.80;97.40
56725;DHT22;42608;52.776;6.968;2023-06-04T10:30:48;18.80;96.60
56725;DHT22;42608;52.776;6.968;2023-06-04T10:33:20;18.80;95.60
56725;DHT22;42608;52.776;6.968;2023-06-04T10:35:47;18.80;96.70
56725;DHT22;42608;52.776;6.968;2023-06-04T10:38:13;18.80;96.40
56725;DHT22;42608;52.776;6.968;2023-06-04T10:40:41;18.90;96.20
56725;DHT22;42608;52.776;6.968;2023-06-04T10:43:11;18.90;95.50
56725;DHT22;42608;52.776;6.968;2023-06-04T10:45:38;18.90;95.40
56725;DHT22;42608;52.776;6.968;2023-06-04T10:48:05;18.90;96.10
56725;DHT22;42608;52.776;6.968;2023-06-04T10:50:32;19.00;96.30
56725;DHT22;42608;52.776;6.968;2023-06-04T10:52:59;19.10;96.60
56725;DHT22;42608;52.776;6.968;2023-06-04T10:55:29;19.10;97.70
56725;DHT22;42608;52.776;6.968;2023-06-04T10:58:00;19.20;95.40
56725;DHT22;42608;52.776;6.968;2023-06-04T11:00:43;19.20;93.80
56725;DHT22;42608;52.776;6.968;2023-06-04T11:03:11;19.20;93.20
56725;DHT22;42608;52.776;6.968;2023-06-04T11:05:42;19.20;93.40
56725;DHT22;42608;52.776;6.968;2023-06-04T11:08:09;19.30;93.70
56725;DHT22;42608;52.776;6.968;2023-06-04T11:10:38;19.40;93.50
56725;DHT22;42608;52.776;6.968;2023-06-04T11:13:05;19.50;94.40
56725;DHT22;42608;52.776;6.968;2023-06-04T11:15:46;19.60;94.20
56725;DHT22;42608;52.776;6.968;2023-06-04T11:18:18;19.70;91.40
56725;DHT22;42608;52.776;6.968;2023-06-04T11:20:46;19.70;91.00
56725;DHT22;42608;52.776;6.968;2023-06-04T11:23:13;19.70;91.90
56725;DHT22;42608;52.776;6.968;2023-06-04T11:25:42;19.80;92.60
56725;DHT22;42608;52.776;6.968;2023-06-04T11:28:15;20.00;92.30
56725;DHT22;42608;52.776;6.968;2023-06-04T11:30:42;20.10;90.20
56725;DHT22;42608;52.776;6.968;2023-06-04T11:33:07;20.10;88.00
56725;DHT22;42608;52.776;6.968;2023-06-04T11:35:41;20.10;86.30
56725;DHT22;42608;52.776;6.968;2023-06-04T11:38:07;20.00;86.40
56725;DHT22;42608;52.776;6.968;2023-06-04T11:40:32;20.10;90.30
56725;DHT22;42608;52.776;6.968;2023-06-04T11:42:58;20.10;91.10
56725;DHT22;42608;52.776;6.968;2023-06-04T11:45:24;20.20;89.70
56725;DHT22;42608;52.776;6.968;2023-06-04T11:47:55;20.30;90.80
56725;DHT22;42608;52.776;6.968;2023-06-04T11:50:28;20.30;90.70
56725;DHT22;42608;52.776;6.968;2023-06-04T11:52:54;20.40;91.30
56725;DHT22;42608;52.776;6.968;2023-06-04T11:55:20;20.40;87.70
56725;DHT22;42608;52.776;6.968;2023-06-04T11:57:46;20.40;89.20
56725;DHT22;42608;52.776;6.968;2023-06-04T12:00:12;20.50;90.50
56725;DHT22;42608;52.776;6.968;2023-06-04T12:02:47;20.50;90.00
56725;DHT22;42608;52.776;6.968;2023-06-04T12:05:17;20.60;88.40
56725;DHT22;42608;52.776;6.968;2023-06-04T12:07:47;20.60;87.20
56725;DHT22;42608;52.776;6.968;2023-06-04T12:10:21;20.70;87.40
56725;DHT22;42608;52.776;6.968;2023-06-04T12:12:55;20.80;87.70
56725;DHT22;42608;52.776;6.968;2023-06-04T12:15:25;21.00;88.90
56725;DHT22;42608;52.776;6.968;2023-06-04T12:17:52;21.10;88.60
56725;DHT22;42608;52.776;6.968;2023-06-04T12:20:30;21.10;85.40
56725;DHT22;42608;52.776;6.968;2023-06-04T12:22:57;21.20;82.70
56725;DHT22;42608;52.776;6.968;2023-06-04T12:25:26;21.30;81.70
56725;DHT22;42608;52.776;6.968;2023-06-04T12:27:53;21.30;84.50
56725;DHT22;42608;52.776;6.968;2023-06-04T12:30:18;21.40;81.80
56725;DHT22;42608;52.776;6.968;2023-06-04T12:32:44;21.40;80.00
56725;DHT22;42608;52.776;6.968;2023-06-04T12:35:11;21.60;80.70
56725;DHT22;42608;52.776;6.968;2023-06-04T12:37:36;21.60;80.10
56725;DHT22;42608;52.776;6.968;2023-06-04T12:40:02;21.70;79.00
56725;DHT22;42608;52.776;6.968;2023-06-04T12:42:29;21.70;77.50
56725;DHT22;42608;52.776;6.968;2023-06-04T12:44:55;21.70;77.40
56725;DHT22;42608;52.776;6.968;2023-06-04T12:47:21;21.70;74.30
56725;DHT22;42608;52.776;6.968;2023-06-04T12:49:46;21.70;74.40
56725;DHT22;42608;52.776;6.968;2023-06-04T12:52:12;21.80;75.20
56725;DHT22;42608;52.776;6.968;2023-06-04T12:54:44;22.00;76.10
56725;DHT22;42608;52.776;6.968;2023-06-04T12:57:10;22.10;75.70
56725;DHT22;42608;52.776;6.968;2023-06-04T12:59:35;22.20;73.60
56725;DHT22;42608;52.776;6.968;2023-06-04T13:02:01;22.30;73.10
56725;DHT22;42608;52.776;6.968;2023-06-04T13:04:27;22.20;70.50
56725;DHT22;42608;52.776;6.968;2023-06-04T13:06:52;22.20;71.40
56725;DHT22;42608;52.776;6.968;2023-06-04T13:09:20;22.20;71.90
56725;DHT22;42608;52.776;6.968;2023-06-04T13:11:48;22.20;71.80
56725;DHT22;42608;52.776;6.968;2023-06-04T13:14:13;22.30;69.70
56725;DHT22;42608;52.776;6.968;2023-06-04T13:16:39;22.30;69.90
56725;DHT22;42608;52.776;6.968;2023-06-04T13:19:05;22.20;69.10
56725;DHT22;42608;52.776;6.968;2023-06-04T13:21:30;22.20;68.20
56725;DHT22;42608;52.776;6.968;2023-06-04T13:23:56;22.20;68.70
56725;DHT22;42608;52.776;6.968;2023-06-04T13:26:22;22.20;69.60
56725;DHT22;42608;52.776;6.968;2023-06-04T13:28:47;22.40;70.70
56725;DHT22;42608;52.776;6.968;2023-06-04T13:31:13;22.50;70.60
56725;DHT22;42608;52.776;6.968;2023-06-04T13:33:38;22.70;69.50
56725;DHT22;42608;52.776;6.968;2023-06-04T13:36:05;22.80;69.20
56725;DHT22;42608;52.776;6.968;2023-06-04T13:38:31;22.90;68.20
56725;DHT22;42608;52.776;6.968;2023-06-04T13:40:56;22.90;68.30
56725;DHT22;42608;52.776;6.968;2023-06-04T13:43:22;23.00;67.20
56725;DHT22;42608;52.776;6.968;2023-06-04T13:45:47;23.00;66.10
56725;DHT22;42608;52.776;6.968;2023-06-04T13:48:14;23.00;66.90
56725;DHT22;42608;52.776;6.968;2023-06-04T13:50:40;23.00;65.80
56725;DHT22;42608;52.776;6.968;2023-06-04T13:53:06;23.00;66.00
56725;DHT22;42608;52.776;6.968;2023-06-04T13:55:32;23.10;66.90
56725;DHT22;42608;52.776;6.968;2023-06-04T13:57:58;23.10;67.20
56725;DHT22;42608;52.776;6.968;2023-06-04T14:00:23;23.20;66.90
56725;DHT22;42608;52.776;6.968;2023-06-04T14:02:49;23.20;64.90
56725;DHT22;42608;52.776;6.968;2023-06-04T14:05:14;23.40;65.60
56725;DHT22;42608;52.776;6.968;2023-06-04T14:07:41;23.40;65.30
56725;DHT22;42608;52.776;6.968;2023-06-04T14:10:07;23.50;65.00
56725;DHT22;42608;52.776;6.968;2023-06-04T14:12:32;23.50;63.70
56725;DHT22;42608;52.776;6.968;2023-06-04T14:14:58;23.60;64.10
56725;DHT22;42608;52.776;6.968;2023-06-04T14:17:23;23.50;63.50
56725;DHT22;42608;52.776;6.968;2023-06-04T14:19:49;23.50;64.00
56725;DHT22;42608;52.776;6.968;2023-06-04T14:22:15;23.50;63.20
56725;DHT22;42608;52.776;6.968;2023-06-04T14:24:40;23.50;62.90
56725;DHT22;42608;52.776;6.968;2023-06-04T14:27:07;23.40;62.60
56725;DHT22;42608;52.776;6.968;2023-06-04T14:29:34;23.20;63.60
56725;DHT22;42608;52.776;6.968;2023-06-04T14:32:00;23.10;64.90
56725;DHT22;42608;52.776;6.968;2023-06-04T14:34:25;23.10;65.80
56725;DHT22;42608;52.776;6.968;2023-06-04T14:36:51;23.10;66.10
56725;DHT22;42608;52.776;6.968;2023-06-04T14:39:17;23.00;64.50
56725;DHT22;42608;52.776;6.968;2023-06-04T14:41:42;23.00;66.50
56725;DHT22;42608;52.776;6.968;2023-06-04T14:44:08;23.00;66.90
56725;DHT22;42608;52.776;6.968;2023-06-04T14:46:33;23.00;67.80
56725;DHT22;42608;52.776;6.968;2023-06-04T14:48:59;22.80;66.80
56725;DHT22;42608;52.776;6.968;2023-06-04T14:51:25;22.80;67.40
56725;DHT22;42608;52.776;6.968;2023-06-04T14:53:52;22.80;68.10
56725;DHT22;42608;52.776;6.968;2023-06-04T14:56:17;22.90;69.80
56725;DHT22;42608;52.776;6.968;2023-06-04T14:58:43;22.90;68.80
56725;DHT22;42608;52.776;6.968;2023-06-04T15:01:09;23.00;68.80
56725;DHT22;42608;52.776;6.968;2023-06-04T15:03:38;22.90;67.50
56725;DHT22;42608;52.776;6.968;2023-06-04T15:06:03;23.00;69.00
56725;DHT22;42608;52.776;6.968;2023-06-04T15:08:29;23.00;69.20
56725;DHT22;42608;52.776;6.968;2023-06-04T15:10:54;23.00;68.70
56725;DHT22;42608;52.776;6.968;2023-06-04T15:13:20;22.90;69.60
56725;DHT22;42608;52.776;6.968;2023-06-04T15:15:45;22.80;70.10
56725;DHT22;42608;52.776;6.968;2023-06-04T15:18:11;22.70;69.00
56725;DHT22;42608;52.776;6.968;2023-06-04T15:20:37;22.70;69.10
56725;DHT22;42608;52.776;6.968;2023-06-04T15:23:02;22.60;69.70
56725;DHT22;42608;52.776;6.968;2023-06-04T15:25:28;22.60;71.00
56725;DHT22;42608;52.776;6.968;2023-06-04T15:27:53;22.60;71.50
56725;DHT22;42608;52.776;6.968;2023-06-04T15:30:19;22.60;70.70
56725;DHT22;42608;52.776;6.968;2023-06-04T15:32:46;22.50;72.30
56725;DHT22;42608;52.776;6.968;2023-06-04T15:35:11;22.50;72.40
56725;DHT22;42608;52.776;6.968;2023-06-04T15:37:37;22.40;72.00
56725;DHT22;42608;52.776;6.968;2023-06-04T15:40:03;22.30;71.90